Time;durP1;ratioP1;P1;durP2;ratioP2;P2;SDS_P1;SDS_P2;PMS_P1;PMS_P2;Temp;Humidity;BMP_temperature;BMP_pressure;BME280_temperature;BME280_humidity;BME280_pressure;Samples;Min_cycle;Max_cycle;Signal;HPM_P1;HPM_P2
2022/01/15 00:01:26;;;;;;;7.37;4.20;;;;;;;7.06;nan;-24014.09;5050241;28;20182;-80
2022/01/15 00:03:52;;;;;;;6.50;4.20;;;;;;;7.14;nan;-24016.34;5029546;28;20209;-81
2022/01/15 00:06:17;;;;;;;6.60;4.47;;;;;;;6.60;nan;-24001.19;5034386;28;20194;-81
2022/01/15 00:08:43;;;;;;;7.07;4.63;;;;;;;6.68;nan;-24003.44;5033000;28;20193;-79
2022/01/15 00:11:08;;;;;;;9.80;4.60;;;;;;;6.42;nan;-23996.22;5028803;28;20549;-79
2022/01/15 00:13:33;;;;;;;6.77;3.97;;;;;;;6.45;nan;-23997.06;5052312;28;20182;-79
2022/01/15 00:16:09;;;;;;;6.57;4.10;;;;;;;6.71;nan;-24004.28;5043942;28;20261;-79
2022/01/15 00:18:47;;;;;;;6.30;4.10;;;;;;;7.08;nan;-24014.78;5050902;28;20193;-79
2022/01/15 00:21:14;;;;;;;7.23;4.60;;;;;;;7.04;nan;-24013.66;5034242;28;20649;-81
2022/01/15 00:23:40;;;;;;;6.03;4.17;;;;;;;7.01;nan;-24012.81;5034093;28;20290;-80
2022/01/15 00:26:06;;;;;;;8.40;4.50;;;;;;;7.02;nan;-24013.09;5052309;28;20174;-80
2022/01/15 00:28:31;;;;;;;5.77;3.93;;;;;;;7.06;nan;-24014.22;5034365;28;20548;-79
2022/01/15 00:30:56;;;;;;;6.03;4.33;;;;;;;7.35;nan;-24022.31;5034505;28;20187;-79
2022/01/15 00:33:22;;;;;;;6.70;4.00;;;;;;;6.95;nan;-24011.09;5052193;28;20185;-80
2022/01/15 00:35:48;;;;;;;6.17;4.00;;;;;;;6.94;nan;-24010.69;5033948;28;20279;-80
2022/01/15 00:38:13;;;;;;;7.67;4.53;;;;;;;7.27;nan;-24019.91;5033752;28;20183;-80
2022/01/15 00:40:39;;;;;;;5.87;4.00;;;;;;;6.99;nan;-24012.09;5051839;28;20186;-80
2022/01/15 00:43:04;;;;;;;6.70;4.30;;;;;;;7.03;nan;-24013.38;5052200;28;20182;-79
2022/01/15 00:45:32;;;;;;;5.53;3.90;;;;;;;7.01;nan;-24012.81;5034046;28;20278;-81
2022/01/15 00:47:59;;;;;;;7.73;4.33;;;;;;;7.25;nan;-24019.47;5051796;28;20178;-79
2022/01/15 00:50:24;;;;;;;5.63;4.30;;;;;;;7.27;nan;-24019.91;5027382;28;20212;-79
2022/01/15 00:52:50;;;;;;;5.77;4.00;;;;;;;6.88;nan;-24008.97;5030223;28;20567;-79
2022/01/15 00:55:19;;;;;;;6.17;3.87;;;;;;;7.26;nan;-24019.63;5032114;28;20238;-80
2022/01/15 00:57:44;;;;;;;6.17;4.23;;;;;;;7.19;nan;-24017.63;5029973;28;20199;-80
2022/01/15 01:00:14;;;;;;;5.47;3.80;;;;;;;7.25;nan;-24019.47;5042553;28;20225;-79
2022/01/15 01:02:39;;;;;;;5.50;3.50;;;;;;;7.17;nan;-24017.06;5031902;28;20185;-79
2022/01/15 01:05:05;;;;;;;5.47;3.20;;;;;;;6.82;nan;-24007.41;5030581;28;20183;-81
2022/01/15 01:07:30;;;;;;;5.50;3.80;;;;;;;7.21;nan;-24018.19;5031749;28;20210;-79
2022/01/15 01:10:13;;;;;;;6.03;3.87;;;;;;;7.23;nan;-24018.75;5031465;28;20229;-80
2022/01/15 01:23:08;;;;;;;5.90;3.83;;;;;;;6.94;nan;-24010.69;5035790;28;20556;-81
2022/01/15 01:25:46;;;;;;;5.50;3.93;;;;;;;7.81;nan;-24035.22;5034469;28;20263;-80
2022/01/15 01:31:06;;;;;;;5.03;3.60;;;;;;;7.70;nan;-24032.09;5029456;28;20202;-80
2022/01/15 01:33:38;;;;;;;6.50;4.17;;;;;;;7.52;nan;-24027.13;5035040;28;20190;-81
2022/01/15 01:38:40;;;;;;;5.53;3.60;;;;;;;7.32;nan;-24021.47;5036306;28;20187;-80
2022/01/15 01:41:07;;;;;;;5.67;3.80;;;;;;;7.29;nan;-24020.47;5033048;28;20214;-80
2022/01/15 01:46:34;;;;;;;4.87;3.77;;;;;;;7.31;nan;-24021.03;5036123;28;20281;-80
2022/01/15 01:48:56;;;;;;;6.70;4.10;;;;;;;7.46;nan;-24025.28;5035655;28;20187;-80
2022/01/15 01:51:34;;;;;;;6.60;4.10;;;;;;;7.09;nan;-24014.94;5035611;28;20325;-81
2022/01/15 01:54:02;;;;;;;5.53;3.90;;;;;;;7.36;nan;-24022.44;5037846;28;20660;-80
2022/01/15 01:56:28;;;;;;;5.20;3.67;;;;;;;7.40;nan;-24023.59;5055219;28;20214;-79
2022/01/15 01:58:54;;;;;;;4.87;3.50;;;;;;;6.95;nan;-24011.09;5037835;28;20217;-79
2022/01/15 02:01:19;;;;;;;8.30;4.17;;;;;;;7.50;nan;-24026.41;5055426;28;20502;-79
2022/01/15 02:03:45;;;;;;;6.20;4.13;;;;;;;7.44;nan;-24024.88;5036819;28;20170;-80
2022/01/15 02:06:10;;;;;;;5.23;4.00;;;;;;;6.94;nan;-24010.69;5036379;28;20592;-79
2022/01/15 02:08:37;;;;;;;5.33;4.10;;;;;;;6.77;nan;-24006.00;5036188;28;20171;-79
2022/01/15 02:11:05;;;;;;;7.03;4.10;;;;;;;7.32;nan;-24021.47;5029312;28;20183;-79
2022/01/15 02:13:31;;;;;;;5.43;3.90;;;;;;;6.82;nan;-24007.41;5053661;28;20187;-79
2022/01/15 02:15:58;;;;;;;7.37;4.40;;;;;;;6.90;nan;-24009.53;5054384;28;20210;-78
2022/01/15 02:18:25;;;;;;;5.80;3.97;;;;;;;7.45;nan;-24025.00;5036331;28;20194;-77
2022/01/15 02:23:32;;;;;;;4.60;3.63;;;;;;;7.30;nan;-24020.75;5054059;28;20324;-78
2022/01/15 02:23:53;;;;;;;5.87;3.77;;;;;;;7.22;nan;-24018.47;5053897;28;20295;-77
2022/01/15 02:26:24;;;;;;;5.63;4.20;;;;;;;7.12;nan;-24015.66;5036593;28;20748;-76
2022/01/15 02:28:57;;;;;;;5.93;3.90;;;;;;;7.20;nan;-24017.91;5036416;28;20185;-78
2022/01/15 02:31:24;;;;;;;5.93;4.10;;;;;;;6.90;nan;-24009.53;5035977;28;20182;-77
2022/01/15 02:33:52;;;;;;;5.87;3.90;;;;;;;6.49;nan;-23998.19;5054211;28;20541;-78
2022/01/15 02:36:28;;;;;;;5.63;4.27;;;;;;;6.73;nan;-24004.88;5054166;28;20209;-78
2022/01/15 02:38:54;;;;;;;7.67;4.50;;;;;;;6.81;nan;-24007.13;5054128;28;20300;-79
2022/01/15 02:41:29;;;;;;;6.23;4.50;;;;;;;6.23;nan;-23990.81;5052541;28;20187;-78
2022/01/15 02:43:58;;;;;;;6.53;4.47;;;;;;;6.48;nan;-23997.75;5053934;28;20174;-78
2022/01/15 02:48:51;;;;;;;6.43;4.20;;;;;;;6.18;nan;-23989.53;5053412;28;20266;-79
2022/01/15 02:51:22;;;;;;;7.63;5.03;;;;;;;6.42;nan;-23996.06;5048413;28;20190;-79
2022/01/15 02:53:54;;;;;;;5.90;4.40;;;;;;;6.09;nan;-23986.84;5035646;28;20186;-79
2022/01/15 02:56:41;;;;;;;6.03;4.53;;;;;;;6.39;nan;-23995.34;5052786;28;20293;-79
2022/01/15 02:59:15;;;;;;;8.67;4.13;;;;;;;6.36;nan;-23994.34;5035534;28;20214;-79
2022/01/15 03:01:40;;;;;;;6.97;4.70;;;;;;;5.85;nan;-23980.00;5035981;28;20205;-79
2022/01/15 03:04:06;;;;;;;6.73;4.50;;;;;;;6.15;nan;-23988.69;5035497;28;20634;-79
2022/01/15 03:06:31;;;;;;;7.20;4.73;;;;;;;6.38;nan;-23994.94;5053503;28;20178;-79
2022/01/15 03:08:57;;;;;;;7.97;4.83;;;;;;;6.38;nan;-23994.94;5036002;28;20171;-79
2022/01/15 03:11:23;;;;;;;8.97;4.53;;;;;;;6.22;nan;-23990.66;5042907;28;20190;-79
2022/01/15 03:13:49;;;;;;;6.60;4.50;;;;;;;6.07;nan;-23986.41;5050543;28;20217;-79
2022/01/15 03:16:17;;;;;;;7.57;4.53;;;;;;;5.80;nan;-23978.72;5053516;28;20665;-79
2022/01/15 03:18:43;;;;;;;7.87;4.90;;;;;;;6.15;nan;-23988.69;5035165;28;20270;-79
2022/01/15 03:21:09;;;;;;;7.67;4.80;;;;;;;6.30;nan;-23992.66;5053173;28;20266;-79
2022/01/15 03:23:35;;;;;;;7.57;4.70;;;;;;;5.92;nan;-23982.00;5035517;28;20181;-79
2022/01/15 03:26:01;;;;;;;6.50;4.80;;;;;;;6.38;nan;-23994.94;5035172;28;20178;-79
2022/01/15 03:28:26;;;;;;;7.30;4.40;;;;;;;6.43;nan;-23996.34;5053468;28;20182;-78
2022/01/15 03:30:52;;;;;;;7.40;4.83;;;;;;;6.46;nan;-23997.34;5028290;28;20628;-79
2022/01/15 03:33:18;;;;;;;6.70;4.80;;;;;;;6.22;nan;-23990.66;5053094;28;20185;-78
2022/01/15 03:35:44;;;;;;;8.17;5.40;;;;;;;6.80;nan;-24006.84;5053322;28;20209;-78
2022/01/15 03:38:10;;;;;;;7.53;5.10;;;;;;;6.76;nan;-24005.72;5052879;28;20183;-77
2022/01/15 03:40:36;;;;;;;9.20;4.93;;;;;;;6.51;nan;-23998.63;5052601;28;20171;-77
2022/01/15 03:43:03;;;;;;;8.47;5.00;;;;;;;6.82;nan;-24007.41;5052661;28;20170;-77
2022/01/15 03:45:28;;;;;;;7.33;5.07;;;;;;;6.63;nan;-24002.03;5052336;28;20265;-77
2022/01/15 03:47:56;;;;;;;6.67;5.03;;;;;;;6.65;nan;-24002.59;5053021;28;20274;-76
2022/01/15 03:50:24;;;;;;;10.37;5.67;;;;;;;6.56;nan;-24000.19;5052669;28;20217;-77
2022/01/15 03:52:49;;;;;;;7.63;5.17;;;;;;;6.95;nan;-24011.09;5052706;28;20325;-78
2022/01/15 03:55:17;;;;;;;8.93;5.20;;;;;;;6.95;nan;-24010.97;5052239;28;20757;-77
2022/01/15 03:57:42;;;;;;;7.83;5.10;;;;;;;6.61;nan;-24001.59;5052279;28;20182;-77
2022/01/15 04:00:26;;;;;;;8.83;5.33;;;;;;;7.01;nan;-24012.66;5034261;28;20174;-77
2022/01/15 04:02:54;;;;;;;8.07;4.97;;;;;;;6.98;nan;-24011.81;5052717;28;20170;-77
2022/01/15 04:05:20;;;;;;;8.73;5.13;;;;;;;7.07;nan;-24014.50;5050963;28;20214;-77
2022/01/15 04:07:46;;;;;;;10.93;5.67;;;;;;;7.00;nan;-24012.53;5046189;28;20267;-77
2022/01/15 04:10:13;;;;;;;8.47;5.57;;;;;;;7.10;nan;-24015.34;5052509;28;20187;-77
2022/01/15 04:12:38;;;;;;;9.20;5.27;;;;;;;6.71;nan;-24004.28;5052776;28;20171;-78
2022/01/15 04:15:05;;;;;;;8.53;5.43;;;;;;;6.99;nan;-24012.09;5033994;28;20734;-77
2022/01/15 04:17:31;;;;;;;10.83;5.70;;;;;;;7.19;nan;-24017.78;5052139;28;20646;-77
2022/01/15 04:19:58;;;;;;;8.97;5.47;;;;;;;7.13;nan;-24016.06;5052086;28;20178;-77
2022/01/15 04:22:23;;;;;;;9.23;6.00;;;;;;;6.76;nan;-24005.72;5052159;28;20248;-78
2022/01/15 04:24:49;;;;;;;9.33;6.00;;;;;;;6.51;nan;-23998.63;5046046;28;20681;-77
2022/01/15 04:27:14;;;;;;;9.20;5.90;;;;;;;6.90;nan;-24009.53;5051982;28;20332;-77
2022/01/15 04:29:40;;;;;;;9.63;5.60;;;;;;;6.87;nan;-24008.84;5033846;28;20670;-77
2022/01/15 04:32:05;;;;;;;10.40;5.80;;;;;;;7.42;nan;-24024.28;5033857;28;20198;-77
2022/01/15 04:34:31;;;;;;;8.77;5.87;;;;;;;7.03;nan;-24013.38;5051992;28;20179;-77
2022/01/15 04:37:36;;;;;;;9.90;5.60;;;;;;;7.55;nan;-24027.84;5033922;28;20186;-77
2022/01/15 04:39:51;;;;;;;8.27;5.33;;;;;;;7.43;nan;-24024.44;5047582;28;20198;-77
2022/01/15 04:42:20;;;;;;;8.90;5.67;;;;;;;7.18;nan;-24017.47;5045598;28;20198;-77
2022/01/15 04:44:46;;;;;;;10.23;6.00;;;;;;;7.23;nan;-24018.75;5052015;28;20183;-77
2022/01/15 04:47:12;;;;;;;11.43;6.50;;;;;;;6.80;nan;-24006.84;5051975;28;20186;-77
2022/01/15 04:49:37;;;;;;;7.50;5.53;;;;;;;7.24;nan;-24019.03;5034256;28;20597;-78
2022/01/15 04:52:03;;;;;;;8.27;5.97;;;;;;;7.09;nan;-24015.06;5033509;28;20230;-78
2022/01/15 04:54:28;;;;;;;9.77;5.93;;;;;;;6.78;nan;-24006.13;5033459;28;20189;-78
2022/01/15 04:56:54;;;;;;;10.40;6.33;;;;;;;6.76;nan;-24005.56;5051261;28;20206;-78
2022/01/15 04:59:20;;;;;;;9.90;6.40;;;;;;;7.21;nan;-24018.19;5033839;28;20607;-78
2022/01/15 05:01:46;;;;;;;9.53;6.20;;;;;;;6.82;nan;-24007.28;5033847;28;20296;-78
2022/01/15 05:04:11;;;;;;;10.53;6.60;;;;;;;7.17;nan;-24017.06;5033491;28;20174;-78
2022/01/15 05:06:37;;;;;;;11.30;6.50;;;;;;;7.01;nan;-24012.81;5045020;28;20175;-78
2022/01/15 05:09:06;;;;;;;10.27;6.30;;;;;;;6.82;nan;-24007.28;5051617;28;20190;-77
2022/01/15 05:14:12;;;;;;;10.20;6.80;;;;;;;7.06;nan;-24014.09;5044594;28;20198;-77
2022/01/15 05:16:38;;;;;;;9.83;6.60;;;;;;;6.97;nan;-24011.66;5033052;28;20284;-77
2022/01/15 05:19:04;;;;;;;10.33;6.63;;;;;;;6.78;nan;-24006.13;5030295;28;20187;-77
2022/01/15 05:21:29;;;;;;;10.60;6.17;;;;;;;6.72;nan;-24004.56;5050884;28;20183;-77
2022/01/15 05:23:54;;;;;;;10.77;6.90;;;;;;;6.90;nan;-24009.69;5050869;28;20567;-76
2022/01/15 05:26:20;;;;;;;12.00;7.57;;;;;;;6.70;nan;-24003.88;5050774;28;20267;-77
2022/01/15 05:28:45;;;;;;;14.70;8.70;;;;;;;6.75;nan;-24005.44;5032616;28;20723;-77
2022/01/15 05:31:12;;;;;;;12.20;7.77;;;;;;;6.70;nan;-24004.00;5051158;28;20178;-77
2022/01/15 05:33:37;;;;;;;14.03;7.83;;;;;;;6.76;nan;-24005.56;5044712;28;20262;-77
2022/01/15 05:36:03;;;;;;;14.27;8.30;;;;;;;7.14;nan;-24016.22;5032750;28;20289;-77
2022/01/15 05:38:28;;;;;;;11.60;7.60;;;;;;;7.08;nan;-24014.78;5050370;28;20224;-77
2022/01/15 05:40:54;;;;;;;15.83;6.67;;;;;;;7.01;nan;-24012.81;5032773;28;20223;-77
2022/01/15 05:43:19;;;;;;;11.70;7.60;;;;;;;6.95;nan;-24010.97;5050831;28;20175;-77
2022/01/15 05:45:45;;;;;;;13.83;8.00;;;;;;;6.86;nan;-24008.41;5049679;28;20261;-78
2022/01/15 05:48:10;;;;;;;13.00;7.87;;;;;;;7.12;nan;-24015.66;5051485;28;20182;-78
2022/01/15 05:50:36;;;;;;;14.83;8.30;;;;;;;7.19;nan;-24017.63;5033580;28;20179;-78
2022/01/15 05:53:02;;;;;;;12.10;7.73;;;;;;;7.01;nan;-24012.81;5051159;28;20249;-76
2022/01/15 05:55:27;;;;;;;12.97;8.03;;;;;;;7.19;nan;-24017.63;5051037;28;20210;-76
2022/01/15 05:57:52;;;;;;;13.57;8.60;;;;;;;7.08;nan;-24014.78;5051274;28;20661;-76
2022/01/15 06:00:18;;;;;;;14.03;8.40;;;;;;;6.96;nan;-24011.38;5051095;28;20251;-77
2022/01/15 06:02:43;;;;;;;14.47;8.90;;;;;;;6.86;nan;-24008.56;5051081;28;20522;-76
2022/01/15 06:05:09;;;;;;;11.20;7.73;;;;;;;7.08;nan;-24014.78;5033011;28;20211;-76
2022/01/15 06:07:34;;;;;;;13.20;7.63;;;;;;;6.99;nan;-24012.09;5052676;28;20228;-77
2022/01/15 06:10:00;;;;;;;13.60;7.80;;;;;;;7.15;nan;-24016.63;5054535;28;20175;-74
2022/01/15 06:12:31;;;;;;;10.93;7.00;;;;;;;7.25;nan;-24019.34;5054770;28;20568;-73
2022/01/15 06:14:57;;;;;;;11.90;7.30;;;;;;;6.72;nan;-24004.44;5054351;28;20191;-74
2022/01/15 06:17:22;;;;;;;14.23;7.63;;;;;;;6.85;nan;-24008.13;5054456;28;20185;-74
2022/01/15 06:19:48;;;;;;;11.90;7.50;;;;;;;7.18;nan;-24017.47;5054694;28;20174;-74
2022/01/15 06:22:13;;;;;;;13.47;8.13;;;;;;;7.28;nan;-24020.31;5053859;28;20258;-75
2022/01/15 06:24:40;;;;;;;13.30;8.37;;;;;;;7.32;nan;-24021.31;5054221;28;20186;-73
2022/01/15 06:27:08;;;;;;;12.17;7.63;;;;;;;7.38;nan;-24023.00;5054222;28;20175;-74
2022/01/15 06:29:33;;;;;;;12.40;7.80;;;;;;;6.98;nan;-24011.94;5053653;28;20178;-76
2022/01/15 06:31:59;;;;;;;12.73;7.67;;;;;;;7.06;nan;-24014.22;5050983;28;20240;-73
2022/01/15 06:34:24;;;;;;;13.57;7.63;;;;;;;6.96;nan;-24011.38;5035304;28;20611;-75
2022/01/15 06:36:50;;;;;;;13.07;8.63;;;;;;;7.50;nan;-24026.56;5051900;28;20205;-73
2022/01/15 06:39:15;;;;;;;12.97;8.37;;;;;;;7.18;nan;-24017.34;5053683;28;20174;-74
2022/01/15 06:41:40;;;;;;;13.57;8.20;;;;;;;7.63;nan;-24029.97;5053608;28;20182;-74
2022/01/15 06:44:06;;;;;;;13.60;8.10;;;;;;;6.98;nan;-24011.94;5053200;28;20287;-73
2022/01/15 06:46:31;;;;;;;13.80;7.80;;;;;;;7.06;nan;-24014.22;5051265;28;20182;-72
2022/01/15 06:48:57;;;;;;;14.00;8.33;;;;;;;7.27;nan;-24019.91;5049895;28;20630;-72
2022/01/15 06:51:24;;;;;;;14.27;8.03;;;;;;;7.06;nan;-24014.09;5048989;28;20189;-77
2022/01/15 06:53:49;;;;;;;14.67;8.80;;;;;;;6.98;nan;-24011.81;5047709;28;20199;-76
2022/01/15 06:56:15;;;;;;;13.03;8.37;;;;;;;6.87;nan;-24008.84;5050894;28;20229;-75
2022/01/15 06:58:40;;;;;;;12.43;7.77;;;;;;;7.06;nan;-24014.22;5043761;28;20225;-74
2022/01/15 07:01:06;;;;;;;12.10;7.73;;;;;;;7.32;nan;-24021.31;5054175;28;20207;-82
2022/01/15 07:03:31;;;;;;;11.50;7.77;;;;;;;7.43;nan;-24024.44;5034736;28;20187;-81
2022/01/15 07:05:57;;;;;;;12.93;8.33;;;;;;;7.22;nan;-24018.63;5040510;28;20708;-83
2022/01/15 07:08:22;;;;;;;13.40;8.30;;;;;;;7.25;nan;-24019.34;5036058;28;20641;-83
2022/01/15 07:10:48;;;;;;;14.17;7.57;;;;;;;7.15;nan;-24016.50;5035092;28;20185;-73
2022/01/15 07:13:13;;;;;;;11.33;7.67;;;;;;;7.03;nan;-24013.22;5048062;28;20658;-71
2022/01/15 07:15:39;;;;;;;13.67;8.13;;;;;;;7.26;nan;-24019.63;5050641;28;20544;-72
2022/01/15 07:18:04;;;;;;;13.23;8.40;;;;;;;7.19;nan;-24017.63;5033953;28;20182;-71
2022/01/15 07:20:30;;;;;;;13.37;7.10;;;;;;;7.37;nan;-24022.88;5046767;28;20183;-63
2022/01/15 07:22:55;;;;;;;11.53;7.30;;;;;;;7.37;nan;-24022.72;5044772;28;20244;-68
2022/01/15 07:25:21;;;;;;;12.30;7.93;;;;;;;7.57;nan;-24028.41;5049229;28;20189;-67
2022/01/15 07:27:47;;;;;;;13.93;7.07;;;;;;;7.69;nan;-24031.66;5045248;28;20265;-69
2022/01/15 07:30:14;;;;;;;12.03;7.50;;;;;;;7.37;nan;-24022.72;5046216;28;20213;-70
2022/01/15 07:32:41;;;;;;;11.83;7.53;;;;;;;7.81;nan;-24035.06;5044582;28;20261;-67
2022/01/15 07:35:09;;;;;;;11.37;7.23;;;;;;;7.36;nan;-24022.59;5041302;28;20199;-69
2022/01/15 07:37:35;;;;;;;12.67;7.83;;;;;;;7.61;nan;-24029.53;5042503;28;20549;-66
2022/01/15 07:40:01;;;;;;;14.07;8.53;;;;;;;7.70;nan;-24032.09;5039006;28;20182;-66
2022/01/15 07:42:34;;;;;;;12.97;8.17;;;;;;;6.99;nan;-24012.09;5042134;28;20179;-64
2022/01/15 07:45:00;;;;;;;14.07;8.20;;;;;;;6.97;nan;-24011.66;5049215;28;20193;-69
2022/01/15 07:47:25;;;;;;;13.77;7.93;;;;;;;7.39;nan;-24023.31;5049259;28;20178;-67
2022/01/15 07:49:50;;;;;;;13.27;8.13;;;;;;;7.26;nan;-24019.63;5025754;28;20202;-70
2022/01/15 07:52:19;;;;;;;14.30;7.83;;;;;;;7.43;nan;-24024.44;5052187;28;20287;-65
2022/01/15 07:54:44;;;;;;;12.57;8.30;;;;;;;7.07;nan;-24014.38;5042729;28;20185;-66
2022/01/15 07:57:10;;;;;;;13.90;8.00;;;;;;;7.47;nan;-24025.56;5048561;28;20179;-68
2022/01/15 07:59:35;;;;;;;16.67;8.87;;;;;;;7.69;nan;-24031.81;5051840;28;20182;-68
2022/01/15 08:02:01;;;;;;;13.53;7.90;;;;;;;7.74;nan;-24033.22;5051591;28;20224;-69
2022/01/15 08:04:26;;;;;;;13.67;8.77;;;;;;;7.80;nan;-24034.91;5051639;28;20252;-67
2022/01/15 08:06:51;;;;;;;15.57;8.70;;;;;;;7.29;nan;-24020.47;5051814;28;20181;-69
2022/01/15 08:09:17;;;;;;;14.20;8.40;;;;;;;7.41;nan;-24023.88;5033843;28;20174;-68
2022/01/15 08:11:42;;;;;;;13.90;8.53;;;;;;;7.75;nan;-24033.38;5052176;28;20262;-68
2022/01/15 08:14:07;;;;;;;12.10;8.23;;;;;;;7.86;nan;-24036.47;5051555;28;20171;-67
2022/01/15 08:16:33;;;;;;;12.97;8.70;;;;;;;7.72;nan;-24032.66;5051473;28;20295;-67
2022/01/15 08:18:58;;;;;;;13.77;9.03;;;;;;;7.36;nan;-24022.44;5051548;28;20175;-69
2022/01/15 08:21:23;;;;;;;19.43;11.30;;;;;;;7.45;nan;-24025.13;5051252;28;20183;-66
2022/01/15 08:23:49;;;;;;;16.87;10.40;;;;;;;7.51;nan;-24026.84;5051440;28;20198;-67
2022/01/15 08:26:15;;;;;;;17.27;10.37;;;;;;;7.63;nan;-24030.09;5051309;28;20167;-69
2022/01/15 08:28:40;;;;;;;18.07;10.53;;;;;;;7.95;nan;-24039.16;5051162;28;20649;-70
2022/01/15 08:31:07;;;;;;;17.53;10.83;;;;;;;8.15;nan;-24044.69;5040124;28;20226;-69
2022/01/15 08:33:33;;;;;;;25.20;14.87;;;;;;;7.97;nan;-24039.59;5042406;28;20179;-66
2022/01/15 08:35:59;;;;;;;26.07;14.47;;;;;;;8.25;nan;-24047.38;5043758;28;20206;-68
2022/01/15 08:38:24;;;;;;;22.70;13.00;;;;;;;8.26;nan;-24047.66;5048212;28;20185;-69
2022/01/15 08:40:50;;;;;;;17.63;10.57;;;;;;;8.17;nan;-24045.13;5047847;28;20253;-67
2022/01/15 08:43:15;;;;;;;17.93;10.00;;;;;;;8.15;nan;-24044.56;5051037;28;20630;-68
2022/01/15 08:45:42;;;;;;;13.87;9.47;;;;;;;8.53;nan;-24055.16;5044296;28;20191;-67
2022/01/15 08:48:08;;;;;;;15.67;9.60;;;;;;;8.20;nan;-24045.97;5051010;28;20580;-69
2022/01/15 08:50:34;;;;;;;17.80;10.33;;;;;;;8.50;nan;-24054.47;5044523;28;20178;-77
2022/01/15 08:52:59;;;;;;;20.50;11.40;;;;;;;8.57;nan;-24056.44;5050539;28;20234;-78
2022/01/15 08:55:28;;;;;;;19.00;11.10;;;;;;;8.36;nan;-24050.50;5050380;28;20206;-77
2022/01/15 08:57:58;;;;;;;19.63;10.93;;;;;;;8.39;nan;-24051.34;5050871;28;20241;-77
2022/01/15 09:00:24;;;;;;;19.07;10.83;;;;;;;8.57;nan;-24056.44;5026409;28;20183;-78
2022/01/15 09:02:49;;;;;;;21.43;11.63;;;;;;;8.60;nan;-24057.28;5027421;28;20186;-77
2022/01/15 09:05:16;;;;;;;23.20;12.50;;;;;;;8.31;nan;-24049.09;5048424;28;20184;-77
2022/01/15 09:07:42;;;;;;;23.33;12.60;;;;;;;8.49;nan;-24054.03;5045536;28;20510;-77
2022/01/15 09:10:08;;;;;;;21.70;12.13;;;;;;;8.58;nan;-24056.59;5032506;28;20200;-76
2022/01/15 09:12:35;;;;;;;19.50;11.27;;;;;;;8.30;nan;-24048.81;5033229;28;20194;-76
2022/01/15 09:15:00;;;;;;;18.90;11.40;;;;;;;8.68;nan;-24059.56;5038144;28;20201;-76
2022/01/15 09:17:26;;;;;;;19.10;12.13;;;;;;;8.62;nan;-24057.88;5038976;28;20272;-77
2022/01/15 09:19:53;;;;;;;19.50;11.43;;;;;;;8.25;nan;-24047.53;5050794;28;20275;-78
2022/01/15 09:22:19;;;;;;;18.37;11.60;;;;;;;8.25;nan;-24047.38;5048358;28;20179;-77
2022/01/15 09:24:45;;;;;;;20.50;11.70;;;;;;;8.53;nan;-24055.31;5039505;28;20568;-78
2022/01/15 09:30:12;;;;;;;21.07;12.23;;;;;;;8.52;nan;-24055.03;5050691;28;20248;-77
2022/01/15 09:32:42;;;;;;;19.87;11.53;;;;;;;8.64;nan;-24058.28;5050725;28;20178;-77
2022/01/15 09:35:08;;;;;;;17.97;11.60;;;;;;;8.61;nan;-24057.44;5041599;28;20195;-77
2022/01/15 09:37:34;;;;;;;19.20;11.87;;;;;;;8.25;nan;-24047.53;5046064;28;20578;-76
2022/01/15 09:39:59;;;;;;;17.60;11.83;;;;;;;8.95;nan;-24066.91;5043774;28;20587;-76
2022/01/15 09:42:25;;;;;;;19.93;12.27;;;;;;;8.87;nan;-24064.78;5033962;28;20302;-76
2022/01/15 09:44:52;;;;;;;18.57;11.80;;;;;;;9.04;nan;-24069.47;5036440;28;20202;-77
2022/01/15 09:47:21;;;;;;;18.17;11.97;;;;;;;9.13;nan;-24072.16;5036053;28;20179;-76
2022/01/15 09:49:47;;;;;;;18.27;11.50;;;;;;;9.21;nan;-24074.25;5054180;28;20676;-77
2022/01/15 09:52:13;;;;;;;21.87;11.73;;;;;;;9.33;nan;-24077.66;5026231;28;20223;-77
2022/01/15 09:54:39;;;;;;;17.90;12.00;;;;;;;9.65;nan;-24086.72;5033435;28;20505;-77
2022/01/15 09:57:05;;;;;;;17.95;11.70;;;;;;;10.06;nan;-24098.00;5034323;28;20704;-77
2022/01/15 09:59:30;;;;;;;22.73;12.52;;;;;;;9.92;nan;-24094.06;5032103;28;20179;-77
2022/01/15 10:02:00;;;;;;;22.25;12.32;;;;;;;9.74;nan;-24089.25;5032287;28;20293;-77
2022/01/15 10:04:26;;;;;;;20.67;12.23;;;;;;;9.50;nan;-24082.31;5032844;28;20180;-77
2022/01/15 10:07:22;;;;;;;20.40;12.30;;;;;;;9.84;nan;-24091.78;5034322;28;20551;-78
2022/01/15 10:09:49;;;;;;;20.23;12.88;;;;;;;9.62;nan;-24085.84;5028925;28;20198;-77
2022/01/15 10:12:34;;;;;;;19.48;12.15;;;;;;;9.56;nan;-24084.03;5049362;28;20198;-76
2022/01/15 10:15:06;;;;;;;19.95;11.90;;;;;;;9.40;nan;-24079.50;5030665;28;20248;-76
2022/01/15 10:17:35;;;;;;;17.48;11.38;;;;;;;9.36;nan;-24078.50;5032666;28;20281;-76
2022/01/15 10:20:06;;;;;;;18.33;11.30;;;;;;;9.74;nan;-24089.09;5032492;28;20191;-74
2022/01/15 10:22:32;;;;;;;18.48;11.10;;;;;;;9.97;nan;-24095.59;5034088;28;20623;-75
2022/01/15 10:25:03;;;;;;;25.52;12.13;;;;;;;10.75;nan;-24117.19;5048874;28;20194;-76
2022/01/15 10:27:34;;;;;;;19.48;11.80;;;;;;;10.78;nan;-24118.03;5033672;28;20203;-76
2022/01/15 10:30:20;;;;;;;22.00;12.00;;;;;;;10.33;nan;-24105.50;5032071;28;20178;-76
2022/01/15 10:32:57;;;;;;;19.80;11.75;;;;;;;10.10;nan;-24099.13;5029937;28;20175;-76
2022/01/15 10:35:24;;;;;;;18.67;12.27;;;;;;;9.98;nan;-24095.88;5031236;28;20207;-78
2022/01/15 10:37:53;;;;;;;18.27;11.75;;;;;;;10.02;nan;-24096.88;5032567;28;20658;-77
2022/01/15 10:40:22;;;;;;;17.55;11.20;;;;;;;9.67;nan;-24087.13;5031865;28;20199;-75
2022/01/15 10:42:54;;;;;;;19.13;11.05;;;;;;;10.04;nan;-24097.59;5033144;28;20186;-77
2022/01/15 10:45:19;;;;;;;16.40;10.43;;;;;;;10.03;nan;-24097.16;5033259;28;20725;-78
2022/01/15 10:47:52;;;;;;;15.60;10.95;;;;;;;9.87;nan;-24092.63;5033269;28;20242;-77
2022/01/15 10:50:22;;;;;;;16.50;11.57;;;;;;;10.35;nan;-24106.19;5031909;28;20186;-76
2022/01/15 10:52:49;;;;;;;16.63;11.05;;;;;;;10.43;nan;-24108.47;5030645;28;20577;-75
2022/01/15 10:55:16;;;;;;;18.88;11.32;;;;;;;10.43;nan;-24108.47;5029247;28;20218;-76
2022/01/15 10:58:05;;;;;;;17.48;9.63;;;;;;;10.68;nan;-24115.22;5028568;28;20190;-76
2022/01/15 11:00:37;;;;;;;15.88;10.65;;;;;;;11.23;nan;-24130.59;5025625;28;20284;-74
2022/01/15 11:03:06;;;;;;;12.45;8.32;;;;;;;11.00;nan;-24124.25;5033520;28;20184;-77
2022/01/15 11:05:48;;;;;;;14.38;9.00;;;;;;;11.20;nan;-24129.88;5032541;28;20175;-75
2022/01/15 11:08:15;;;;;;;14.70;10.00;;;;;;;10.86;nan;-24120.44;5033402;28;20175;-74
2022/01/15 11:10:52;;;;;;;16.63;10.65;;;;;;;10.57;nan;-24112.41;5032979;28;20195;-77
2022/01/15 11:13:21;;;;;;;16.85;11.35;;;;;;;10.13;nan;-24100.13;5031483;28;20631;-76
2022/01/15 11:15:50;;;;;;;19.05;11.30;;;;;;;10.07;nan;-24098.28;5032813;28;20195;-76
2022/01/15 11:18:25;;;;;;;19.17;12.07;;;;;;;10.27;nan;-24103.78;5033124;28;20164;-76
2022/01/15 11:20:53;;;;;;;17.08;11.32;;;;;;;9.75;nan;-24089.38;5033406;28;20543;-75
2022/01/15 11:23:24;;;;;;;19.05;11.05;;;;;;;10.20;nan;-24101.97;5032631;28;20259;-77
2022/01/15 11:25:52;;;;;;;16.05;10.80;;;;;;;9.72;nan;-24088.53;5020345;28;20246;-77
2022/01/15 11:28:27;;;;;;;16.48;9.82;;;;;;;10.56;nan;-24111.97;5029462;28;20578;-74
2022/01/15 11:30:58;;;;;;;14.55;9.07;;;;;;;10.64;nan;-24114.38;5031319;28;20226;-77
2022/01/15 11:33:30;;;;;;;13.48;8.07;;;;;;;10.66;nan;-24114.66;5047044;28;20203;-75
2022/01/15 11:35:56;;;;;;;13.38;8.07;;;;;;;10.05;nan;-24097.88;5032433;28;20271;-72
2022/01/15 11:38:43;;;;;;;11.95;8.43;;;;;;;10.60;nan;-24113.25;5032108;28;20186;-74
2022/01/15 11:41:26;;;;;;;11.63;8.18;;;;;;;10.35;nan;-24106.06;5032498;28;20179;-75
2022/01/15 11:43:53;;;;;;;15.65;8.73;;;;;;;9.93;nan;-24094.47;5030963;28;20179;-74
2022/01/15 11:46:27;;;;;;;37.67;29.70;;;;;;;10.61;nan;-24113.53;5032498;28;20171;-74
2022/01/15 11:49:24;;;;;;;21.08;12.75;;;;;;;10.55;nan;-24111.84;5030924;28;20274;-74
2022/01/15 11:52:12;;;;;;;26.70;20.85;;;;;;;10.27;nan;-24103.78;5037450;28;20262;-74
2022/01/15 11:54:38;;;;;;;15.60;8.35;;;;;;;10.42;nan;-24108.16;5032946;28;20186;-74
2022/01/15 11:57:19;;;;;;;21.58;8.23;;;;;;;10.32;nan;-24105.34;5033252;28;20322;-74
2022/01/15 11:59:46;;;;;;;13.70;7.43;;;;;;;10.03;nan;-24097.16;5052403;28;20191;-74
2022/01/15 12:02:38;;;;;;;12.98;7.35;;;;;;;9.61;nan;-24085.44;5034092;28;20281;-75
2022/01/15 12:05:18;;;;;;;10.65;6.80;;;;;;;10.09;nan;-24098.84;5051315;28;20182;-75
2022/01/15 12:07:45;;;;;;;11.38;6.55;;;;;;;9.88;nan;-24092.91;5025762;28;20192;-75
2022/01/15 12:10:17;;;;;;;10.07;6.57;;;;;;;9.65;nan;-24086.56;5051687;28;20182;-75
2022/01/15 12:12:50;;;;;;;10.63;6.80;;;;;;;9.68;nan;-24087.56;5051686;28;20243;-75